Terminal Aerodrome Forecast
Issued by NWS Cheyenne, WY

Home | Current Version | Previous Version | Text Only | Print | Product List | Glossary On
Versions: 1 2 3 4 5 6 7 8 9 10 11 12 13 14 15 16 17 18 19 20 21 22 23 24 25 26 27 28 29 30 31 32 33 34 35 36 37 38 39 40 41 42
000
FTUS45 KCYS 120400 AAA
TAFCYS
TAF AMD
KCYS 120437Z 1205/1224 14010G22KT P6SM VCTS SCT060CB BKN090
      TEMPO 1205/1207 VRB20G35KT 3SM TSRA BKN035CB
     FM120800 32008KT P6SM SCT120
     FM121500 36010G20KT P6SM SCT060
     FM122000 05010G20KT P6SM VCTS BKN060CB=

USA.gov is the U.S. government's official web portal to all federal, state and local government web resources and services.